SARL/AOL METAR and TAF weather

Enter ICAO airport designator
Station Type Date Time Source
SARL METAR 2023/02/01 12:00 UTC NOAA

SARL 011200Z 09005KT CAVOK 30/18 Q1010 RMK ESTIMATED WIND


Station Type Date Time Source
SARL Decoded METAR 2023/02/01 12:00 UTC NOAA

Paso De Los Libres Aerodrome, Argentina (SARL) 29-41S 057-09W 70M
Feb 01, 2023 - 07:00 AM EST / 2023.02.01 1200 UTC
Wind: from the E (090 degrees) at 6 MPH (5 KT):0
Visibility: greater than 7 mile(s):0
Temperature: 86 F (30 C)
Dew Point: 64 F (18 C)
Relative Humidity: 48%
Pressure (altimeter): 29.83 in. Hg (1010 hPa)
ob: SARL 011200Z 09005KT CAVOK 30/18 Q1010 RMK ESTIMATED WIND
cycle: 12

Station Type Date Time Source
SARL TAF UTC NOAA

Error!

Example: see airport list